PAEH

Details ICAO PAEH (EHM)
Name CAPE NEWENHAM LRRS
Region USA (Alaska)
Timezone America/Nome (UTC-9.0)
Plans Departing 2
Arriving 5
Stats Elevation 541 ft / 165 m (AMSL)
Location 58.646428° -162.062778°
Runways 1
Magnetic Variation 11.245° E
Sunrise 2017-12-18 19:37:47 UTC / 2017-12-18 10:37:47 Local
Sunset 2017-12-19 01:55:05 UTC / 2017-12-18 16:55:05 Local
Advertisement - Login to hide

Runways

ID Width Length Bearing (true) Bearing (mag) Surface Threshold Offset Overrun Length
14 150 ft / 46 m 3,944 ft / 1,202 m 162.03° 150.79° Gravel 0 ft / 0 m 0 ft / 0 m
32 150 ft / 46 m 3,944 ft / 1,202 m 342.03° 330.79° Gravel 0 ft / 0 m 0 ft / 0 m

Map

Weather


0- 5 10 15 20 25 30 35+ Temperature / ° C

Clouds and Precipitation
Forecast for 2017-12-18 18:00 UTC. Updated 3 minutes ago

Ground ~20,000 ft ~40,000 ft Winds

METAR

PAEH 181255Z AUTO 17021G34KT 110V190 10SM -RA OVC055 01/M02 A3003

TAF

Not found

Frequencies

Unicom 126.20 MHz CTAF/UNICOM
Warning: Do not use this data for real-world aviation or navigation. No guarantee of current accuracy is given.